sensor_id;sensor_type;location;lat;lon;timestamp;temperature;humidity
22212;DHT22;11275;52.488;13.462;2023-01-29T00:01:45;2.20;99.90
22212;DHT22;11275;52.488;13.462;2023-01-29T00:04:11;2.20;99.90
22212;DHT22;11275;52.488;13.462;2023-01-29T00:06:37;2.20;99.90
22212;DHT22;11275;52.488;13.462;2023-01-29T00:09:02;2.20;99.90
22212;DHT22;11275;52.488;13.462;2023-01-29T00:11:28;2.20;99.90
22212;DHT22;11275;52.488;13.462;2023-01-29T00:13:53;2.20;99.90
22212;DHT22;11275;52.488;13.462;2023-01-29T00:16:19;2.20;99.90
22212;DHT22;11275;52.488;13.462;2023-01-29T00:18:45;2.20;99.90
22212;DHT22;11275;52.488;13.462;2023-01-29T00:21:17;2.30;99.90
22212;DHT22;11275;52.488;13.462;2023-01-29T00:23:43;2.30;99.90
22212;DHT22;11275;52.488;13.462;2023-01-29T00:26:09;2.20;99.90
22212;DHT22;11275;52.488;13.462;2023-01-29T00:28:35;2.20;99.90
22212;DHT22;11275;52.488;13.462;2023-01-29T00:31:07;2.20;99.90
22212;DHT22;11275;52.488;13.462;2023-01-29T00:33:33;2.20;99.90
22212;DHT22;11275;52.488;13.462;2023-01-29T00:36:00;2.20;99.90
22212;DHT22;11275;52.488;13.462;2023-01-29T00:38:26;2.30;99.90
22212;DHT22;11275;52.488;13.462;2023-01-29T00:40:51;2.30;99.90
22212;DHT22;11275;52.488;13.462;2023-01-29T00:43:35;2.30;99.90
22212;DHT22;11275;52.488;13.462;2023-01-29T00:46:20;2.20;99.90
22212;DHT22;11275;52.488;13.462;2023-01-29T00:48:45;2.30;99.90
22212;DHT22;11275;52.488;13.462;2023-01-29T00:51:11;2.30;99.90
22212;DHT22;11275;52.488;13.462;2023-01-29T00:53:36;2.30;99.90
22212;DHT22;11275;52.488;13.462;2023-01-29T00:56:02;2.30;99.90
22212;DHT22;11275;52.488;13.462;2023-01-29T00:58:27;2.30;99.90
22212;DHT22;11275;52.488;13.462;2023-01-29T01:00:59;2.20;99.90
22212;DHT22;11275;52.488;13.462;2023-01-29T01:03:25;2.30;99.90
22212;DHT22;11275;52.488;13.462;2023-01-29T01:06:01;2.20;99.90
22212;DHT22;11275;52.488;13.462;2023-01-29T01:08:26;2.30;99.90
22212;DHT22;11275;52.488;13.462;2023-01-29T01:11:10;2.30;99.90
22212;DHT22;11275;52.488;13.462;2023-01-29T01:13:36;2.30;99.90
22212;DHT22;11275;52.488;13.462;2023-01-29T01:16:07;2.30;99.90
22212;DHT22;11275;52.488;13.462;2023-01-29T01:18:32;2.20;99.90
22212;DHT22;11275;52.488;13.462;2023-01-29T01:20:58;2.20;99.90
22212;DHT22;11275;52.488;13.462;2023-01-29T01:23:24;2.20;99.90
22212;DHT22;11275;52.488;13.462;2023-01-29T01:25:49;2.30;99.90
22212;DHT22;11275;52.488;13.462;2023-01-29T01:28:15;2.20;99.90
22212;DHT22;11275;52.488;13.462;2023-01-29T01:30:40;2.20;99.90
22212;DHT22;11275;52.488;13.462;2023-01-29T01:33:06;2.20;99.90
22212;DHT22;11275;52.488;13.462;2023-01-29T01:35:31;2.30;99.90
22212;DHT22;11275;52.488;13.462;2023-01-29T01:37:57;2.30;99.90
22212;DHT22;11275;52.488;13.462;2023-01-29T01:40:23;2.20;99.90
22212;DHT22;11275;52.488;13.462;2023-01-29T01:42:50;2.10;99.90
22212;DHT22;11275;52.488;13.462;2023-01-29T01:45:32;2.20;99.90
22212;DHT22;11275;52.488;13.462;2023-01-29T01:48:00;2.20;99.90
22212;DHT22;11275;52.488;13.462;2023-01-29T01:52:54;2.30;99.90
22212;DHT22;11275;52.488;13.462;2023-01-29T01:55:22;2.30;99.90
22212;DHT22;11275;52.488;13.462;2023-01-29T01:57:49;2.40;99.90
22212;DHT22;11275;52.488;13.462;2023-01-29T02:00:17;2.30;99.90
22212;DHT22;11275;52.488;13.462;2023-01-29T02:02:45;2.40;99.90
22212;DHT22;11275;52.488;13.462;2023-01-29T02:05:29;2.40;99.90
22212;DHT22;11275;52.488;13.462;2023-01-29T02:08:15;2.50;99.90
22212;DHT22;11275;52.488;13.462;2023-01-29T02:11:00;2.50;99.90
22212;DHT22;11275;52.488;13.462;2023-01-29T02:13:25;2.50;99.90
22212;DHT22;11275;52.488;13.462;2023-01-29T02:15:51;2.50;99.90
22212;DHT22;11275;52.488;13.462;2023-01-29T02:18:18;2.50;99.90
22212;DHT22;11275;52.488;13.462;2023-01-29T02:20:47;2.50;99.90
22212;DHT22;11275;52.488;13.462;2023-01-29T02:23:27;2.50;99.90
22212;DHT22;11275;52.488;13.462;2023-01-29T02:26:18;2.50;99.90
22212;DHT22;11275;52.488;13.462;2023-01-29T02:28:53;2.40;99.90
22212;DHT22;11275;52.488;13.462;2023-01-29T02:31:28;2.50;99.90
22212;DHT22;11275;52.488;13.462;2023-01-29T02:34:08;2.50;99.90
22212;DHT22;11275;52.488;13.462;2023-01-29T02:39:14;2.50;99.90
22212;DHT22;11275;52.488;13.462;2023-01-29T02:41:43;2.50;99.90
22212;DHT22;11275;52.488;13.462;2023-01-29T02:46:37;2.60;99.90
22212;DHT22;11275;52.488;13.462;2023-01-29T02:49:07;2.60;99.90
22212;DHT22;11275;52.488;13.462;2023-01-29T02:51:40;2.50;99.90
22212;DHT22;11275;52.488;13.462;2023-01-29T02:59:17;2.50;99.90
22212;DHT22;11275;52.488;13.462;2023-01-29T03:01:47;2.50;99.90
22212;DHT22;11275;52.488;13.462;2023-01-29T03:04:15;2.40;99.90
22212;DHT22;11275;52.488;13.462;2023-01-29T03:06:48;2.50;99.90
22212;DHT22;11275;52.488;13.462;2023-01-29T03:09:19;2.50;99.90
22212;DHT22;11275;52.488;13.462;2023-01-29T03:11:48;2.50;99.90
22212;DHT22;11275;52.488;13.462;2023-01-29T03:14:19;2.60;99.90
22212;DHT22;11275;52.488;13.462;2023-01-29T03:16:51;2.50;99.90
22212;DHT22;11275;52.488;13.462;2023-01-29T03:21:45;2.50;99.90
22212;DHT22;11275;52.488;13.462;2023-01-29T03:24:17;2.50;99.90
22212;DHT22;11275;52.488;13.462;2023-01-29T03:27:04;2.40;99.90
22212;DHT22;11275;52.488;13.462;2023-01-29T03:29:50;2.40;99.90
22212;DHT22;11275;52.488;13.462;2023-01-29T03:32:34;2.40;99.90
22212;DHT22;11275;52.488;13.462;2023-01-29T03:35:03;2.40;99.90
22212;DHT22;11275;52.488;13.462;2023-01-29T03:37:51;2.50;99.90
22212;DHT22;11275;52.488;13.462;2023-01-29T03:40:15;2.30;99.90
22212;DHT22;11275;52.488;13.462;2023-01-29T03:47:48;2.40;99.90
22212;DHT22;11275;52.488;13.462;2023-01-29T03:50:33;2.40;99.90
22212;DHT22;11275;52.488;13.462;2023-01-29T03:53:07;2.50;99.90
22212;DHT22;11275;52.488;13.462;2023-01-29T03:55:36;2.50;99.90
22212;DHT22;11275;52.488;13.462;2023-01-29T04:00:31;2.50;99.90
22212;DHT22;11275;52.488;13.462;2023-01-29T04:05:30;2.50;99.90
22212;DHT22;11275;52.488;13.462;2023-01-29T04:08:00;2.60;99.90
22212;DHT22;11275;52.488;13.462;2023-01-29T04:10:27;2.60;99.90
22212;DHT22;11275;52.488;13.462;2023-01-29T04:12:57;2.60;99.90
22212;DHT22;11275;52.488;13.462;2023-01-29T04:15:24;2.60;99.90
22212;DHT22;11275;52.488;13.462;2023-01-29T04:17:51;2.70;99.90
22212;DHT22;11275;52.488;13.462;2023-01-29T04:20:17;2.80;99.90
22212;DHT22;11275;52.488;13.462;2023-01-29T04:22:44;2.70;99.90
22212;DHT22;11275;52.488;13.462;2023-01-29T04:25:14;2.70;99.90
22212;DHT22;11275;52.488;13.462;2023-01-29T04:32:35;2.60;99.90
22212;DHT22;11275;52.488;13.462;2023-01-29T04:37:41;2.60;99.90
22212;DHT22;11275;52.488;13.462;2023-01-29T04:55:05;2.60;99.90
22212;DHT22;11275;52.488;13.462;2023-01-29T04:57:46;2.50;99.90
22212;DHT22;11275;52.488;13.462;2023-01-29T05:00:19;2.50;99.90
22212;DHT22;11275;52.488;13.462;2023-01-29T05:02:45;2.60;99.90
22212;DHT22;11275;52.488;13.462;2023-01-29T05:05:12;2.50;99.90
22212;DHT22;11275;52.488;13.462;2023-01-29T05:07:38;2.50;99.90
22212;DHT22;11275;52.488;13.462;2023-01-29T05:10:05;2.50;99.90
22212;DHT22;11275;52.488;13.462;2023-01-29T05:12:31;2.60;99.90
22212;DHT22;11275;52.488;13.462;2023-01-29T05:14:59;2.60;99.90
22212;DHT22;11275;52.488;13.462;2023-01-29T05:17:25;2.60;99.90
22212;DHT22;11275;52.488;13.462;2023-01-29T05:19:51;2.60;99.90
22212;DHT22;11275;52.488;13.462;2023-01-29T05:22:16;2.70;99.90
22212;DHT22;11275;52.488;13.462;2023-01-29T05:24:43;2.70;99.90
22212;DHT22;11275;52.488;13.462;2023-01-29T05:27:29;2.60;99.90
22212;DHT22;11275;52.488;13.462;2023-01-29T05:30:14;2.50;99.90
22212;DHT22;11275;52.488;13.462;2023-01-29T05:32:39;2.50;99.90
22212;DHT22;11275;52.488;13.462;2023-01-29T05:35:05;2.50;99.90
22212;DHT22;11275;52.488;13.462;2023-01-29T05:37:30;2.50;99.90
22212;DHT22;11275;52.488;13.462;2023-01-29T05:39:56;2.50;99.90
22212;DHT22;11275;52.488;13.462;2023-01-29T05:42:22;2.50;99.90
22212;DHT22;11275;52.488;13.462;2023-01-29T05:44:48;2.50;99.90
22212;DHT22;11275;52.488;13.462;2023-01-29T05:47:17;2.60;99.90
22212;DHT22;11275;52.488;13.462;2023-01-29T05:49:42;2.60;99.90
22212;DHT22;11275;52.488;13.462;2023-01-29T05:52:08;2.60;99.90
22212;DHT22;11275;52.488;13.462;2023-01-29T05:54:33;2.50;99.90
22212;DHT22;11275;52.488;13.462;2023-01-29T05:56:59;2.60;99.90
22212;DHT22;11275;52.488;13.462;2023-01-29T05:59:24;2.60;99.90
22212;DHT22;11275;52.488;13.462;2023-01-29T06:01:50;2.60;99.90
22212;DHT22;11275;52.488;13.462;2023-01-29T06:04:15;2.60;99.90
22212;DHT22;11275;52.488;13.462;2023-01-29T06:06:41;2.60;99.90
22212;DHT22;11275;52.488;13.462;2023-01-29T06:09:08;2.60;99.90
22212;DHT22;11275;52.488;13.462;2023-01-29T06:11:33;2.60;99.90
22212;DHT22;11275;52.488;13.462;2023-01-29T06:13:59;2.60;99.90
22212;DHT22;11275;52.488;13.462;2023-01-29T06:16:27;2.60;99.90
22212;DHT22;11275;52.488;13.462;2023-01-29T06:18:53;2.60;99.90
22212;DHT22;11275;52.488;13.462;2023-01-29T06:21:18;2.60;99.90
22212;DHT22;11275;52.488;13.462;2023-01-29T06:23:44;2.60;99.90
22212;DHT22;11275;52.488;13.462;2023-01-29T06:26:10;2.60;99.90
22212;DHT22;11275;52.488;13.462;2023-01-29T06:28:36;2.60;99.90
22212;DHT22;11275;52.488;13.462;2023-01-29T06:31:02;2.70;99.90
22212;DHT22;11275;52.488;13.462;2023-01-29T06:33:28;2.70;99.90
22212;DHT22;11275;52.488;13.462;2023-01-29T06:35:54;2.70;99.90
22212;DHT22;11275;52.488;13.462;2023-01-29T06:38:19;2.70;99.90
22212;DHT22;11275;52.488;13.462;2023-01-29T06:40:45;2.70;99.90
22212;DHT22;11275;52.488;13.462;2023-01-29T06:43:10;2.80;99.90
22212;DHT22;11275;52.488;13.462;2023-01-29T06:45:36;2.80;99.90
22212;DHT22;11275;52.488;13.462;2023-01-29T06:48:01;2.80;99.90
22212;DHT22;11275;52.488;13.462;2023-01-29T06:50:27;2.80;99.90
22212;DHT22;11275;52.488;13.462;2023-01-29T06:52:52;2.70;99.90
22212;DHT22;11275;52.488;13.462;2023-01-29T06:55:18;2.80;99.90
22212;DHT22;11275;52.488;13.462;2023-01-29T06:57:43;2.80;99.90
22212;DHT22;11275;52.488;13.462;2023-01-29T07:00:09;2.70;99.90
22212;DHT22;11275;52.488;13.462;2023-01-29T07:02:35;2.80;99.90
22212;DHT22;11275;52.488;13.462;2023-01-29T07:05:00;2.80;99.90
22212;DHT22;11275;52.488;13.462;2023-01-29T07:07:26;2.80;99.90
22212;DHT22;11275;52.488;13.462;2023-01-29T07:09:51;2.80;99.90
22212;DHT22;11275;52.488;13.462;2023-01-29T07:12:17;2.80;99.90
22212;DHT22;11275;52.488;13.462;2023-01-29T07:14:42;2.90;99.90
22212;DHT22;11275;52.488;13.462;2023-01-29T07:17:08;2.90;99.90
22212;DHT22;11275;52.488;13.462;2023-01-29T07:19:36;2.90;99.90
22212;DHT22;11275;52.488;13.462;2023-01-29T07:22:02;3.00;99.90
22212;DHT22;11275;52.488;13.462;2023-01-29T07:24:28;2.90;99.90
22212;DHT22;11275;52.488;13.462;2023-01-29T07:26:53;2.90;99.90
22212;DHT22;11275;52.488;13.462;2023-01-29T07:29:19;2.90;99.90
22212;DHT22;11275;52.488;13.462;2023-01-29T07:31:44;3.00;99.90
22212;DHT22;11275;52.488;13.462;2023-01-29T07:34:10;2.90;99.90
22212;DHT22;11275;52.488;13.462;2023-01-29T07:36:36;2.80;99.90
22212;DHT22;11275;52.488;13.462;2023-01-29T07:39:01;2.80;99.90
22212;DHT22;11275;52.488;13.462;2023-01-29T07:41:27;2.90;99.90
22212;DHT22;11275;52.488;13.462;2023-01-29T07:43:52;2.90;99.90
22212;DHT22;11275;52.488;13.462;2023-01-29T07:46:18;2.90;99.90
22212;DHT22;11275;52.488;13.462;2023-01-29T07:48:43;2.80;99.90
22212;DHT22;11275;52.488;13.462;2023-01-29T07:51:09;2.80;99.90
22212;DHT22;11275;52.488;13.462;2023-01-29T07:56:02;2.90;99.90
22212;DHT22;11275;52.488;13.462;2023-01-29T07:58:28;2.90;99.90
22212;DHT22;11275;52.488;13.462;2023-01-29T08:00:53;2.90;99.90
22212;DHT22;11275;52.488;13.462;2023-01-29T08:03:19;3.00;99.90
22212;DHT22;11275;52.488;13.462;2023-01-29T08:05:45;3.10;99.90
22212;DHT22;11275;52.488;13.462;2023-01-29T08:08:10;3.10;99.90
22212;DHT22;11275;52.488;13.462;2023-01-29T08:10:36;3.00;99.90
22212;DHT22;11275;52.488;13.462;2023-01-29T08:13:03;2.90;99.90
22212;DHT22;11275;52.488;13.462;2023-01-29T08:15:29;3.00;99.90
22212;DHT22;11275;52.488;13.462;2023-01-29T08:17:54;3.00;99.90
22212;DHT22;11275;52.488;13.462;2023-01-29T08:20:20;3.00;99.90
22212;DHT22;11275;52.488;13.462;2023-01-29T08:22:48;3.00;99.90
22212;DHT22;11275;52.488;13.462;2023-01-29T08:25:14;3.00;99.90
22212;DHT22;11275;52.488;13.462;2023-01-29T08:27:40;3.00;99.90
22212;DHT22;11275;52.488;13.462;2023-01-29T08:30:06;2.90;99.90
22212;DHT22;11275;52.488;13.462;2023-01-29T08:32:32;3.00;99.90
22212;DHT22;11275;52.488;13.462;2023-01-29T08:34:57;3.00;99.90
22212;DHT22;11275;52.488;13.462;2023-01-29T08:37:23;3.10;99.90
22212;DHT22;11275;52.488;13.462;2023-01-29T08:39:48;3.10;99.90
22212;DHT22;11275;52.488;13.462;2023-01-29T08:42:14;3.10;99.90
22212;DHT22;11275;52.488;13.462;2023-01-29T08:44:39;3.20;99.90
22212;DHT22;11275;52.488;13.462;2023-01-29T08:47:05;3.20;99.90
22212;DHT22;11275;52.488;13.462;2023-01-29T08:49:31;3.20;99.90
22212;DHT22;11275;52.488;13.462;2023-01-29T08:51:56;3.20;99.90
22212;DHT22;11275;52.488;13.462;2023-01-29T08:54:22;3.20;99.90
22212;DHT22;11275;52.488;13.462;2023-01-29T08:56:48;3.20;99.90
22212;DHT22;11275;52.488;13.462;2023-01-29T08:59:13;3.20;99.90
22212;DHT22;11275;52.488;13.462;2023-01-29T09:01:39;3.20;99.90
22212;DHT22;11275;52.488;13.462;2023-01-29T09:04:04;3.30;99.90
22212;DHT22;11275;52.488;13.462;2023-01-29T09:06:30;3.40;99.90
22212;DHT22;11275;52.488;13.462;2023-01-29T09:08:55;3.30;99.90
22212;DHT22;11275;52.488;13.462;2023-01-29T09:11:21;3.30;99.90
22212;DHT22;11275;52.488;13.462;2023-01-29T09:13:47;3.30;99.90
22212;DHT22;11275;52.488;13.462;2023-01-29T09:16:12;3.30;99.90
22212;DHT22;11275;52.488;13.462;2023-01-29T09:18:38;3.30;99.90
22212;DHT22;11275;52.488;13.462;2023-01-29T09:21:03;3.30;99.90
22212;DHT22;11275;52.488;13.462;2023-01-29T09:23:29;3.30;99.90
22212;DHT22;11275;52.488;13.462;2023-01-29T09:25:55;3.40;99.90
22212;DHT22;11275;52.488;13.462;2023-01-29T09:28:20;3.40;99.90
22212;DHT22;11275;52.488;13.462;2023-01-29T09:30:46;3.40;99.90
22212;DHT22;11275;52.488;13.462;2023-01-29T09:33:11;3.50;99.90
22212;DHT22;11275;52.488;13.462;2023-01-29T09:35:39;3.40;99.90
22212;DHT22;11275;52.488;13.462;2023-01-29T09:38:04;3.50;99.90
22212;DHT22;11275;52.488;13.462;2023-01-29T09:43:03;3.50;99.90
22212;DHT22;11275;52.488;13.462;2023-01-29T09:45:30;3.50;99.90
22212;DHT22;11275;52.488;13.462;2023-01-29T09:48:00;3.60;99.90
22212;DHT22;11275;52.488;13.462;2023-01-29T09:56:03;3.70;99.90
22212;DHT22;11275;52.488;13.462;2023-01-29T10:03:42;3.80;99.90
22212;DHT22;11275;52.488;13.462;2023-01-29T10:11:09;4.00;99.90
22212;DHT22;11275;52.488;13.462;2023-01-29T10:13:47;4.10;99.90
22212;DHT22;11275;52.488;13.462;2023-01-29T10:26:56;4.20;99.90
22212;DHT22;11275;52.488;13.462;2023-01-29T10:29:21;4.10;99.90
22212;DHT22;11275;52.488;13.462;2023-01-29T10:31:57;4.10;99.90
22212;DHT22;11275;52.488;13.462;2023-01-29T10:34:40;4.10;99.90
22212;DHT22;11275;52.488;13.462;2023-01-29T10:37:16;4.10;99.90
22212;DHT22;11275;52.488;13.462;2023-01-29T10:39:42;4.20;99.90
22212;DHT22;11275;52.488;13.462;2023-01-29T11:00:40;4.40;99.90
22212;DHT22;11275;52.488;13.462;2023-01-29T11:03:22;4.50;99.90
22212;DHT22;11275;52.488;13.462;2023-01-29T11:13:37;4.80;99.90
22212;DHT22;11275;52.488;13.462;2023-01-29T11:16:04;4.80;99.90
22212;DHT22;11275;52.488;13.462;2023-01-29T11:18:47;4.90;99.90
22212;DHT22;11275;52.488;13.462;2023-01-29T11:21:12;4.90;99.90
22212;DHT22;11275;52.488;13.462;2023-01-29T11:23:38;5.00;99.90
22212;DHT22;11275;52.488;13.462;2023-01-29T11:26:04;5.00;99.90
22212;DHT22;11275;52.488;13.462;2023-01-29T11:28:35;4.90;99.90
22212;DHT22;11275;52.488;13.462;2023-01-29T11:31:00;5.00;99.90
22212;DHT22;11275;52.488;13.462;2023-01-29T11:33:26;5.00;99.90
22212;DHT22;11275;52.488;13.462;2023-01-29T11:35:52;5.10;99.90
22212;DHT22;11275;52.488;13.462;2023-01-29T11:38:24;5.10;99.90
22212;DHT22;11275;52.488;13.462;2023-01-29T11:40:50;5.10;99.90
22212;DHT22;11275;52.488;13.462;2023-01-29T11:45:41;5.20;99.90
22212;DHT22;11275;52.488;13.462;2023-01-29T11:48:11;5.00;99.90
22212;DHT22;11275;52.488;13.462;2023-01-29T11:50:38;5.10;99.90
22212;DHT22;11275;52.488;13.462;2023-01-29T11:53:03;5.10;99.90
22212;DHT22;11275;52.488;13.462;2023-01-29T11:55:32;5.00;99.90
22212;DHT22;11275;52.488;13.462;2023-01-29T11:58:00;5.10;99.90
22212;DHT22;11275;52.488;13.462;2023-01-29T12:00:31;5.20;99.90
22212;DHT22;11275;52.488;13.462;2023-01-29T12:05:29;5.10;99.90
22212;DHT22;11275;52.488;13.462;2023-01-29T12:07:55;5.10;99.90
22212;DHT22;11275;52.488;13.462;2023-01-29T12:10:28;5.30;99.90
22212;DHT22;11275;52.488;13.462;2023-01-29T12:15:28;5.40;99.90
22212;DHT22;11275;52.488;13.462;2023-01-29T12:18:01;5.50;99.90
22212;DHT22;11275;52.488;13.462;2023-01-29T12:20:38;5.50;99.90
22212;DHT22;11275;52.488;13.462;2023-01-29T12:25:53;5.40;99.90
22212;DHT22;11275;52.488;13.462;2023-01-29T12:30:54;5.40;99.90
22212;DHT22;11275;52.488;13.462;2023-01-29T12:33:26;5.40;99.90
22212;DHT22;11275;52.488;13.462;2023-01-29T12:35:55;5.50;99.90
22212;DHT22;11275;52.488;13.462;2023-01-29T12:38:25;5.40;99.90
22212;DHT22;11275;52.488;13.462;2023-01-29T12:41:04;5.40;99.90
22212;DHT22;11275;52.488;13.462;2023-01-29T12:43:37;5.40;99.90
22212;DHT22;11275;52.488;13.462;2023-01-29T12:46:06;5.40;99.90
22212;DHT22;11275;52.488;13.462;2023-01-29T12:48:34;5.40;99.90
22212;DHT22;11275;52.488;13.462;2023-01-29T12:51:05;5.40;99.90
22212;DHT22;11275;52.488;13.462;2023-01-29T12:53:40;5.40;99.90
22212;DHT22;11275;52.488;13.462;2023-01-29T12:56:09;5.40;99.90
22212;DHT22;11275;52.488;13.462;2023-01-29T12:58:46;5.30;99.90
22212;DHT22;11275;52.488;13.462;2023-01-29T13:01:14;5.30;99.90
22212;DHT22;11275;52.488;13.462;2023-01-29T13:03:51;5.30;99.90
22212;DHT22;11275;52.488;13.462;2023-01-29T13:06:24;5.30;99.90
22212;DHT22;11275;52.488;13.462;2023-01-29T13:08:51;5.30;99.90
22212;DHT22;11275;52.488;13.462;2023-01-29T13:11:25;5.30;99.90
22212;DHT22;11275;52.488;13.462;2023-01-29T13:13:56;5.20;99.90
22212;DHT22;11275;52.488;13.462;2023-01-29T13:16:27;5.20;99.90
22212;DHT22;11275;52.488;13.462;2023-01-29T13:21:39;5.10;99.90
22212;DHT22;11275;52.488;13.462;2023-01-29T13:24:16;5.20;99.90
22212;DHT22;11275;52.488;13.462;2023-01-29T13:26:46;5.10;99.90
22212;DHT22;11275;52.488;13.462;2023-01-29T13:29:22;5.10;99.90
22212;DHT22;11275;52.488;13.462;2023-01-29T13:31:50;5.10;99.90
22212;DHT22;11275;52.488;13.462;2023-01-29T13:34:23;5.30;99.90
22212;DHT22;11275;52.488;13.462;2023-01-29T13:36:50;5.30;99.90
22212;DHT22;11275;52.488;13.462;2023-01-29T13:39:18;5.20;99.90
22212;DHT22;11275;52.488;13.462;2023-01-29T13:41:46;5.10;99.90
22212;DHT22;11275;52.488;13.462;2023-01-29T13:44:31;5.10;99.90
22212;DHT22;11275;52.488;13.462;2023-01-29T13:47:02;5.20;99.90
22212;DHT22;11275;52.488;13.462;2023-01-29T13:51:56;5.20;99.90
22212;DHT22;11275;52.488;13.462;2023-01-29T13:54:23;5.10;99.90
22212;DHT22;11275;52.488;13.462;2023-01-29T13:59:22;5.20;99.90
22212;DHT22;11275;52.488;13.462;2023-01-29T14:04:23;5.10;99.90
22212;DHT22;11275;52.488;13.462;2023-01-29T14:06:50;5.10;99.90
22212;DHT22;11275;52.488;13.462;2023-01-29T14:09:33;5.00;99.90
22212;DHT22;11275;52.488;13.462;2023-01-29T14:11:58;5.00;99.90
22212;DHT22;11275;52.488;13.462;2023-01-29T14:17:08;5.00;99.90
22212;DHT22;11275;52.488;13.462;2023-01-29T14:19:33;5.00;99.90
22212;DHT22;11275;52.488;13.462;2023-01-29T14:21:59;5.00;99.90
22212;DHT22;11275;52.488;13.462;2023-01-29T14:24:28;5.00;99.90
22212;DHT22;11275;52.488;13.462;2023-01-29T14:26:54;4.90;99.90
22212;DHT22;11275;52.488;13.462;2023-01-29T14:29:24;4.90;99.90
22212;DHT22;11275;52.488;13.462;2023-01-29T14:31:51;4.90;99.90
22212;DHT22;11275;52.488;13.462;2023-01-29T14:36:47;5.10;99.90
22212;DHT22;11275;52.488;13.462;2023-01-29T14:39:30;5.20;99.90
22212;DHT22;11275;52.488;13.462;2023-01-29T14:41:57;5.20;99.90
22212;DHT22;11275;52.488;13.462;2023-01-29T14:47:16;5.00;99.90
22212;DHT22;11275;52.488;13.462;2023-01-29T14:52:13;5.00;99.90
22212;DHT22;11275;52.488;13.462;2023-01-29T14:54:39;5.00;99.90
22212;DHT22;11275;52.488;13.462;2023-01-29T14:57:04;4.90;99.90
22212;DHT22;11275;52.488;13.462;2023-01-29T14:59:33;5.00;99.90
22212;DHT22;11275;52.488;13.462;2023-01-29T15:05:01;5.00;99.90
22212;DHT22;11275;52.488;13.462;2023-01-29T15:09:59;4.90;99.90
22212;DHT22;11275;52.488;13.462;2023-01-29T15:18:12;4.80;99.90
22212;DHT22;11275;52.488;13.462;2023-01-29T15:20:40;4.80;99.90
22212;DHT22;11275;52.488;13.462;2023-01-29T15:23:22;4.80;99.90
22212;DHT22;11275;52.488;13.462;2023-01-29T15:25:48;4.80;99.90
22212;DHT22;11275;52.488;13.462;2023-01-29T15:28:15;4.80;99.90
22212;DHT22;11275;52.488;13.462;2023-01-29T15:30:40;4.70;99.90
22212;DHT22;11275;52.488;13.462;2023-01-29T15:33:08;4.70;99.90
22212;DHT22;11275;52.488;13.462;2023-01-29T15:35:35;4.70;99.90
22212;DHT22;11275;52.488;13.462;2023-01-29T15:38:03;4.60;99.90
22212;DHT22;11275;52.488;13.462;2023-01-29T15:40:29;4.70;99.90
22212;DHT22;11275;52.488;13.462;2023-01-29T15:42:54;4.70;99.90
22212;DHT22;11275;52.488;13.462;2023-01-29T15:45:27;4.60;99.90
22212;DHT22;11275;52.488;13.462;2023-01-29T15:47:55;4.60;99.90
22212;DHT22;11275;52.488;13.462;2023-01-29T15:50:21;4.60;99.90
22212;DHT22;11275;52.488;13.462;2023-01-29T15:52:49;4.60;99.90
22212;DHT22;11275;52.488;13.462;2023-01-29T15:55:16;4.60;99.90
22212;DHT22;11275;52.488;13.462;2023-01-29T15:57:43;4.60;99.90
22212;DHT22;11275;52.488;13.462;2023-01-29T16:00:27;4.60;99.90
22212;DHT22;11275;52.488;13.462;2023-01-29T16:02:54;4.60;99.90
22212;DHT22;11275;52.488;13.462;2023-01-29T16:05:20;4.50;99.90
22212;DHT22;11275;52.488;13.462;2023-01-29T16:07:47;4.60;99.90
22212;DHT22;11275;52.488;13.462;2023-01-29T16:10:15;4.60;99.90
22212;DHT22;11275;52.488;13.462;2023-01-29T16:12:41;4.60;99.90
22212;DHT22;11275;52.488;13.462;2023-01-29T16:15:09;4.70;99.90
22212;DHT22;11275;52.488;13.462;2023-01-29T16:17:38;4.60;99.90
22212;DHT22;11275;52.488;13.462;2023-01-29T16:20:05;4.70;99.90
22212;DHT22;11275;52.488;13.462;2023-01-29T16:22:32;4.60;99.90
22212;DHT22;11275;52.488;13.462;2023-01-29T16:25:04;4.70;99.90
22212;DHT22;11275;52.488;13.462;2023-01-29T16:27:30;4.60;99.90
22212;DHT22;11275;52.488;13.462;2023-01-29T16:29:57;4.60;99.90
22212;DHT22;11275;52.488;13.462;2023-01-29T16:32:22;4.60;99.90
22212;DHT22;11275;52.488;13.462;2023-01-29T16:34:48;4.50;99.90
22212;DHT22;11275;52.488;13.462;2023-01-29T16:37:20;4.70;99.90
22212;DHT22;11275;52.488;13.462;2023-01-29T16:39:47;4.60;99.90
22212;DHT22;11275;52.488;13.462;2023-01-29T16:44:44;4.60;99.90
22212;DHT22;11275;52.488;13.462;2023-01-29T16:47:11;4.60;99.90
22212;DHT22;11275;52.488;13.462;2023-01-29T16:52:53;4.60;99.90
22212;DHT22;11275;52.488;13.462;2023-01-29T16:54:51;4.60;99.90
22212;DHT22;11275;52.488;13.462;2023-01-29T16:57:21;4.60;99.90
22212;DHT22;11275;52.488;13.462;2023-01-29T16:59:50;4.50;99.90
22212;DHT22;11275;52.488;13.462;2023-01-29T17:02:22;4.50;99.90
22212;DHT22;11275;52.488;13.462;2023-01-29T17:04:48;4.50;99.90
22212;DHT22;11275;52.488;13.462;2023-01-29T17:07:15;4.50;99.90
22212;DHT22;11275;52.488;13.462;2023-01-29T17:09:50;4.50;99.90
22212;DHT22;11275;52.488;13.462;2023-01-29T17:12:18;4.50;99.90
22212;DHT22;11275;52.488;13.462;2023-01-29T17:14:52;4.60;99.90
22212;DHT22;11275;52.488;13.462;2023-01-29T17:17:18;4.50;99.90
22212;DHT22;11275;52.488;13.462;2023-01-29T17:19:43;4.50;99.90
22212;DHT22;11275;52.488;13.462;2023-01-29T17:22:09;4.50;99.90
22212;DHT22;11275;52.488;13.462;2023-01-29T17:24:41;4.50;99.90
22212;DHT22;11275;52.488;13.462;2023-01-29T17:27:11;4.50;99.90
22212;DHT22;11275;52.488;13.462;2023-01-29T17:29:41;4.40;99.90
22212;DHT22;11275;52.488;13.462;2023-01-29T17:32:07;4.50;99.90
22212;DHT22;11275;52.488;13.462;2023-01-29T17:34:33;4.50;99.90
22212;DHT22;11275;52.488;13.462;2023-01-29T17:36:58;4.60;99.90
22212;DHT22;11275;52.488;13.462;2023-01-29T17:39:24;4.70;99.90
22212;DHT22;11275;52.488;13.462;2023-01-29T17:41:51;4.50;99.90
22212;DHT22;11275;52.488;13.462;2023-01-29T17:44:17;4.50;99.90
22212;DHT22;11275;52.488;13.462;2023-01-29T17:46:43;4.40;99.90
22212;DHT22;11275;52.488;13.462;2023-01-29T17:49:12;4.40;99.90
22212;DHT22;11275;52.488;13.462;2023-01-29T17:51:43;4.40;99.90
22212;DHT22;11275;52.488;13.462;2023-01-29T17:54:08;4.40;99.90
22212;DHT22;11275;52.488;13.462;2023-01-29T17:56:34;4.40;99.90
22212;DHT22;11275;52.488;13.462;2023-01-29T17:58:59;4.40;99.90
22212;DHT22;11275;52.488;13.462;2023-01-29T18:01:26;4.50;99.90
22212;DHT22;11275;52.488;13.462;2023-01-29T18:03:51;4.40;99.90
22212;DHT22;11275;52.488;13.462;2023-01-29T18:06:26;4.40;99.90
22212;DHT22;11275;52.488;13.462;2023-01-29T18:08:52;4.30;99.90
22212;DHT22;11275;52.488;13.462;2023-01-29T18:11:18;4.30;99.90
22212;DHT22;11275;52.488;13.462;2023-01-29T18:13:43;4.40;99.90